sensor_id;sensor_type;location;lat;lon;timestamp;P1;durP1;ratioP1;P2;durP2;ratioP2
53833;SDS011;39735;51.432;5.482;2023-12-22T00:02:19;24.33;;;3.58;;
53833;SDS011;39735;51.432;5.482;2023-12-22T00:04:45;24.13;;;4.10;;
53833;SDS011;39735;51.432;5.482;2023-12-22T00:07:10;29.67;;;3.92;;
53833;SDS011;39735;51.432;5.482;2023-12-22T00:09:35;31.13;;;2.55;;
53833;SDS011;39735;51.432;5.482;2023-12-22T00:12:01;22.65;;;3.20;;
53833;SDS011;39735;51.432;5.482;2023-12-22T00:14:26;28.38;;;5.68;;
53833;SDS011;39735;51.432;5.482;2023-12-22T00:16:52;20.10;;;2.95;;
53833;SDS011;39735;51.432;5.482;2023-12-22T00:19:17;14.88;;;2.38;;
53833;SDS011;39735;51.432;5.482;2023-12-22T00:21:42;24.30;;;2.27;;
53833;SDS011;39735;51.432;5.482;2023-12-22T00:24:07;14.10;;;3.37;;
53833;SDS011;39735;51.432;5.482;2023-12-22T00:26:33;19.48;;;3.00;;
53833;SDS011;39735;51.432;5.482;2023-12-22T00:28:58;28.00;;;7.43;;
53833;SDS011;39735;51.432;5.482;2023-12-22T00:31:23;30.98;;;5.28;;
53833;SDS011;39735;51.432;5.482;2023-12-22T00:33:48;21.45;;;5.10;;
53833;SDS011;39735;51.432;5.482;2023-12-22T00:36:14;37.60;;;5.70;;
53833;SDS011;39735;51.432;5.482;2023-12-22T00:38:40;37.55;;;3.72;;
53833;SDS011;39735;51.432;5.482;2023-12-22T00:41:05;30.92;;;3.80;;
53833;SDS011;39735;51.432;5.482;2023-12-22T00:43:30;33.85;;;4.20;;
53833;SDS011;39735;51.432;5.482;2023-12-22T00:45:55;36.83;;;4.63;;
53833;SDS011;39735;51.432;5.482;2023-12-22T00:48:22;33.03;;;5.70;;
53833;SDS011;39735;51.432;5.482;2023-12-22T00:50:47;18.92;;;2.33;;
53833;SDS011;39735;51.432;5.482;2023-12-22T00:53:13;27.27;;;3.78;;
53833;SDS011;39735;51.432;5.482;2023-12-22T00:55:38;32.90;;;4.82;;
53833;SDS011;39735;51.432;5.482;2023-12-22T00:58:03;35.10;;;3.80;;
53833;SDS011;39735;51.432;5.482;2023-12-22T01:00:29;25.70;;;5.68;;
53833;SDS011;39735;51.432;5.482;2023-12-22T01:02:54;53.63;;;7.78;;
53833;SDS011;39735;51.432;5.482;2023-12-22T01:05:19;41.15;;;5.90;;
53833;SDS011;39735;51.432;5.482;2023-12-22T01:07:44;39.47;;;4.20;;
53833;SDS011;39735;51.432;5.482;2023-12-22T01:10:09;42.25;;;6.43;;
53833;SDS011;39735;51.432;5.482;2023-12-22T01:12:35;37.60;;;5.10;;
53833;SDS011;39735;51.432;5.482;2023-12-22T01:15:00;31.80;;;6.80;;
53833;SDS011;39735;51.432;5.482;2023-12-22T01:17:25;39.00;;;3.90;;
53833;SDS011;39735;51.432;5.482;2023-12-22T01:19:50;27.63;;;6.22;;
53833;SDS011;39735;51.432;5.482;2023-12-22T01:22:16;24.63;;;4.32;;
53833;SDS011;39735;51.432;5.482;2023-12-22T01:24:41;21.80;;;3.78;;
53833;SDS011;39735;51.432;5.482;2023-12-22T01:27:08;41.30;;;5.60;;
53833;SDS011;39735;51.432;5.482;2023-12-22T01:29:34;29.05;;;5.82;;
53833;SDS011;39735;51.432;5.482;2023-12-22T01:31:59;33.60;;;4.93;;
53833;SDS011;39735;51.432;5.482;2023-12-22T01:34:24;22.70;;;3.95;;
53833;SDS011;39735;51.432;5.482;2023-12-22T01:36:50;31.20;;;5.53;;
53833;SDS011;39735;51.432;5.482;2023-12-22T01:39:15;24.43;;;5.90;;
53833;SDS011;39735;51.432;5.482;2023-12-22T01:41:40;26.17;;;3.05;;
53833;SDS011;39735;51.432;5.482;2023-12-22T01:44:05;40.53;;;5.53;;
53833;SDS011;39735;51.432;5.482;2023-12-22T01:46:31;32.28;;;4.03;;
53833;SDS011;39735;51.432;5.482;2023-12-22T01:48:56;31.17;;;8.35;;
53833;SDS011;39735;51.432;5.482;2023-12-22T01:51:22;33.78;;;6.10;;
53833;SDS011;39735;51.432;5.482;2023-12-22T01:53:47;29.20;;;3.58;;
53833;SDS011;39735;51.432;5.482;2023-12-22T01:56:13;41.50;;;4.88;;
53833;SDS011;39735;51.432;5.482;2023-12-22T01:58:38;40.40;;;4.85;;
53833;SDS011;39735;51.432;5.482;2023-12-22T02:01:03;33.38;;;4.65;;
53833;SDS011;39735;51.432;5.482;2023-12-22T02:03:29;32.45;;;3.95;;
53833;SDS011;39735;51.432;5.482;2023-12-22T02:05:55;53.22;;;5.78;;
53833;SDS011;39735;51.432;5.482;2023-12-22T02:08:20;37.50;;;5.15;;
53833;SDS011;39735;51.432;5.482;2023-12-22T02:10:46;55.15;;;7.07;;
53833;SDS011;39735;51.432;5.482;2023-12-22T02:13:11;44.00;;;6.47;;
53833;SDS011;39735;51.432;5.482;2023-12-22T02:15:38;31.90;;;6.18;;
53833;SDS011;39735;51.432;5.482;2023-12-22T02:20:29;68.75;;;5.97;;
53833;SDS011;39735;51.432;5.482;2023-12-22T02:22:55;21.10;;;2.90;;
53833;SDS011;39735;51.432;5.482;2023-12-22T02:25:20;37.10;;;4.90;;
53833;SDS011;39735;51.432;5.482;2023-12-22T02:27:49;41.58;;;4.55;;
53833;SDS011;39735;51.432;5.482;2023-12-22T02:33:03;28.15;;;3.75;;
53833;SDS011;39735;51.432;5.482;2023-12-22T02:35:29;29.27;;;3.50;;
53833;SDS011;39735;51.432;5.482;2023-12-22T02:37:58;36.38;;;4.57;;
53833;SDS011;39735;51.432;5.482;2023-12-22T02:40:24;42.40;;;3.95;;
53833;SDS011;39735;51.432;5.482;2023-12-22T02:42:49;27.30;;;3.45;;
53833;SDS011;39735;51.432;5.482;2023-12-22T02:45:16;53.88;;;7.20;;
53833;SDS011;39735;51.432;5.482;2023-12-22T02:47:42;34.63;;;6.03;;
53833;SDS011;39735;51.432;5.482;2023-12-22T02:50:07;37.50;;;5.30;;
53833;SDS011;39735;51.432;5.482;2023-12-22T02:52:33;15.00;;;3.22;;
53833;SDS011;39735;51.432;5.482;2023-12-22T02:54:58;38.10;;;3.38;;
53833;SDS011;39735;51.432;5.482;2023-12-22T02:57:24;38.25;;;4.30;;
53833;SDS011;39735;51.432;5.482;2023-12-22T02:59:49;26.00;;;4.65;;
53833;SDS011;39735;51.432;5.482;2023-12-22T03:02:14;34.70;;;4.60;;
53833;SDS011;39735;51.432;5.482;2023-12-22T03:04:39;34.72;;;5.43;;
53833;SDS011;39735;51.432;5.482;2023-12-22T03:07:05;60.33;;;8.07;;
53833;SDS011;39735;51.432;5.482;2023-12-22T03:09:30;36.58;;;6.32;;
53833;SDS011;39735;51.432;5.482;2023-12-22T03:11:56;21.08;;;4.10;;
53833;SDS011;39735;51.432;5.482;2023-12-22T03:14:26;36.90;;;7.40;;
53833;SDS011;39735;51.432;5.482;2023-12-22T03:16:51;34.70;;;7.80;;
53833;SDS011;39735;51.432;5.482;2023-12-22T03:19:17;45.05;;;4.72;;
53833;SDS011;39735;51.432;5.482;2023-12-22T03:21:42;25.35;;;3.83;;
53833;SDS011;39735;51.432;5.482;2023-12-22T03:24:07;52.35;;;7.30;;
53833;SDS011;39735;51.432;5.482;2023-12-22T03:26:32;19.48;;;3.78;;
53833;SDS011;39735;51.432;5.482;2023-12-22T03:28:57;49.57;;;4.73;;
53833;SDS011;39735;51.432;5.482;2023-12-22T03:31:23;29.52;;;3.75;;
53833;SDS011;39735;51.432;5.482;2023-12-22T03:33:48;40.53;;;5.78;;
53833;SDS011;39735;51.432;5.482;2023-12-22T03:36:13;43.38;;;6.43;;
53833;SDS011;39735;51.432;5.482;2023-12-22T03:38:39;26.37;;;4.87;;
53833;SDS011;39735;51.432;5.482;2023-12-22T03:41:04;16.15;;;2.65;;
53833;SDS011;39735;51.432;5.482;2023-12-22T03:43:29;55.13;;;8.07;;
53833;SDS011;39735;51.432;5.482;2023-12-22T03:45:56;59.10;;;9.52;;
53833;SDS011;39735;51.432;5.482;2023-12-22T03:48:21;62.17;;;5.03;;
53833;SDS011;39735;51.432;5.482;2023-12-22T03:50:46;33.63;;;5.45;;
53833;SDS011;39735;51.432;5.482;2023-12-22T03:53:11;38.13;;;3.65;;
53833;SDS011;39735;51.432;5.482;2023-12-22T03:55:37;25.55;;;5.65;;
53833;SDS011;39735;51.432;5.482;2023-12-22T03:58:02;59.08;;;5.38;;
53833;SDS011;39735;51.432;5.482;2023-12-22T04:00:29;47.88;;;5.32;;
53833;SDS011;39735;51.432;5.482;2023-12-22T04:02:55;30.58;;;4.88;;
53833;SDS011;39735;51.432;5.482;2023-12-22T04:05:20;36.05;;;5.07;;
53833;SDS011;39735;51.432;5.482;2023-12-22T04:07:45;23.23;;;4.90;;
53833;SDS011;39735;51.432;5.482;2023-12-22T04:10:11;47.50;;;5.30;;
53833;SDS011;39735;51.432;5.482;2023-12-22T04:12:36;36.35;;;6.85;;
53833;SDS011;39735;51.432;5.482;2023-12-22T04:15:01;26.58;;;4.20;;
53833;SDS011;39735;51.432;5.482;2023-12-22T04:17:27;23.67;;;3.45;;
53833;SDS011;39735;51.432;5.482;2023-12-22T04:19:52;20.80;;;3.13;;
53833;SDS011;39735;51.432;5.482;2023-12-22T04:22:17;27.35;;;2.65;;
53833;SDS011;39735;51.432;5.482;2023-12-22T04:24:43;37.35;;;4.50;;
53833;SDS011;39735;51.432;5.482;2023-12-22T04:27:08;24.33;;;4.80;;
53833;SDS011;39735;51.432;5.482;2023-12-22T04:29:33;28.35;;;3.72;;
53833;SDS011;39735;51.432;5.482;2023-12-22T04:31:59;41.60;;;3.92;;
53833;SDS011;39735;51.432;5.482;2023-12-22T04:34:24;44.28;;;6.00;;
53833;SDS011;39735;51.432;5.482;2023-12-22T04:36:49;46.88;;;7.40;;
53833;SDS011;39735;51.432;5.482;2023-12-22T04:39:14;51.95;;;4.28;;
53833;SDS011;39735;51.432;5.482;2023-12-22T04:41:39;33.05;;;4.22;;
53833;SDS011;39735;51.432;5.482;2023-12-22T04:44:05;25.60;;;5.40;;
53833;SDS011;39735;51.432;5.482;2023-12-22T04:46:30;25.60;;;3.97;;
53833;SDS011;39735;51.432;5.482;2023-12-22T04:48:56;43.92;;;4.43;;
53833;SDS011;39735;51.432;5.482;2023-12-22T04:51:21;43.42;;;7.30;;
53833;SDS011;39735;51.432;5.482;2023-12-22T04:53:46;32.75;;;6.78;;
53833;SDS011;39735;51.432;5.482;2023-12-22T04:56:11;33.63;;;4.77;;
53833;SDS011;39735;51.432;5.482;2023-12-22T04:58:37;43.70;;;8.15;;
53833;SDS011;39735;51.432;5.482;2023-12-22T05:01:02;64.38;;;8.57;;
53833;SDS011;39735;51.432;5.482;2023-12-22T05:03:27;30.02;;;5.00;;
53833;SDS011;39735;51.432;5.482;2023-12-22T05:05:52;47.15;;;6.25;;
53833;SDS011;39735;51.432;5.482;2023-12-22T05:08:18;42.40;;;5.63;;
53833;SDS011;39735;51.432;5.482;2023-12-22T05:10:43;35.00;;;4.22;;
53833;SDS011;39735;51.432;5.482;2023-12-22T05:13:09;34.85;;;7.57;;
53833;SDS011;39735;51.432;5.482;2023-12-22T05:15:34;40.88;;;8.07;;
53833;SDS011;39735;51.432;5.482;2023-12-22T05:17:59;47.30;;;5.00;;
53833;SDS011;39735;51.432;5.482;2023-12-22T05:20:24;33.70;;;4.80;;
53833;SDS011;39735;51.432;5.482;2023-12-22T05:22:49;26.03;;;4.33;;
53833;SDS011;39735;51.432;5.482;2023-12-22T05:25:15;45.00;;;5.32;;
53833;SDS011;39735;51.432;5.482;2023-12-22T05:27:40;30.60;;;4.45;;
53833;SDS011;39735;51.432;5.482;2023-12-22T05:30:08;47.55;;;9.32;;
53833;SDS011;39735;51.432;5.482;2023-12-22T05:32:33;39.13;;;6.75;;
53833;SDS011;39735;51.432;5.482;2023-12-22T05:34:58;38.13;;;5.00;;
53833;SDS011;39735;51.432;5.482;2023-12-22T05:37:24;38.67;;;6.80;;
53833;SDS011;39735;51.432;5.482;2023-12-22T05:39:49;53.90;;;6.35;;
53833;SDS011;39735;51.432;5.482;2023-12-22T05:42:14;38.85;;;4.72;;
53833;SDS011;39735;51.432;5.482;2023-12-22T05:44:39;47.08;;;7.55;;
53833;SDS011;39735;51.432;5.482;2023-12-22T05:47:04;43.83;;;6.00;;
53833;SDS011;39735;51.432;5.482;2023-12-22T05:49:30;38.53;;;8.38;;
53833;SDS011;39735;51.432;5.482;2023-12-22T05:51:55;33.70;;;5.55;;
53833;SDS011;39735;51.432;5.482;2023-12-22T05:54:21;52.83;;;7.35;;
53833;SDS011;39735;51.432;5.482;2023-12-22T05:56:46;40.75;;;5.88;;
53833;SDS011;39735;51.432;5.482;2023-12-22T05:59:11;38.92;;;6.80;;
53833;SDS011;39735;51.432;5.482;2023-12-22T06:01:36;49.72;;;8.52;;
53833;SDS011;39735;51.432;5.482;2023-12-22T06:04:02;71.82;;;7.30;;
53833;SDS011;39735;51.432;5.482;2023-12-22T06:06:27;59.15;;;9.40;;
53833;SDS011;39735;51.432;5.482;2023-12-22T06:08:52;39.53;;;7.43;;
53833;SDS011;39735;51.432;5.482;2023-12-22T06:11:17;36.17;;;6.47;;
53833;SDS011;39735;51.432;5.482;2023-12-22T06:13:43;63.25;;;7.53;;
53833;SDS011;39735;51.432;5.482;2023-12-22T06:16:14;64.60;;;11.52;;
53833;SDS011;39735;51.432;5.482;2023-12-22T06:18:40;86.43;;;9.50;;
53833;SDS011;39735;51.432;5.482;2023-12-22T06:21:06;51.90;;;7.38;;
53833;SDS011;39735;51.432;5.482;2023-12-22T06:23:31;66.65;;;8.15;;
53833;SDS011;39735;51.432;5.482;2023-12-22T06:25:57;62.95;;;10.20;;
53833;SDS011;39735;51.432;5.482;2023-12-22T06:28:22;62.13;;;9.32;;
53833;SDS011;39735;51.432;5.482;2023-12-22T06:30:47;68.75;;;9.82;;
53833;SDS011;39735;51.432;5.482;2023-12-22T06:33:12;53.55;;;8.43;;
53833;SDS011;39735;51.432;5.482;2023-12-22T06:35:38;74.63;;;11.25;;
53833;SDS011;39735;51.432;5.482;2023-12-22T06:38:05;71.47;;;7.55;;
53833;SDS011;39735;51.432;5.482;2023-12-22T06:40:31;59.50;;;8.45;;
53833;SDS011;39735;51.432;5.482;2023-12-22T06:42:56;60.13;;;9.02;;
53833;SDS011;39735;51.432;5.482;2023-12-22T06:45:21;79.60;;;10.85;;
53833;SDS011;39735;51.432;5.482;2023-12-22T06:47:47;88.10;;;14.07;;
53833;SDS011;39735;51.432;5.482;2023-12-22T06:50:12;71.97;;;11.32;;
53833;SDS011;39735;51.432;5.482;2023-12-22T06:52:37;64.57;;;12.80;;
53833;SDS011;39735;51.432;5.482;2023-12-22T06:55:02;64.57;;;9.00;;
53833;SDS011;39735;51.432;5.482;2023-12-22T06:57:28;61.78;;;11.40;;
53833;SDS011;39735;51.432;5.482;2023-12-22T06:59:53;66.97;;;11.38;;
53833;SDS011;39735;51.432;5.482;2023-12-22T07:02:18;61.45;;;10.80;;
53833;SDS011;39735;51.432;5.482;2023-12-22T07:05:03;54.77;;;9.20;;
53833;SDS011;39735;51.432;5.482;2023-12-22T07:07:30;55.30;;;10.10;;
53833;SDS011;39735;51.432;5.482;2023-12-22T07:09:55;43.65;;;8.07;;
53833;SDS011;39735;51.432;5.482;2023-12-22T07:12:20;83.40;;;14.27;;
53833;SDS011;39735;51.432;5.482;2023-12-22T07:14:45;73.63;;;11.82;;
53833;SDS011;39735;51.432;5.482;2023-12-22T07:17:11;76.50;;;9.60;;
53833;SDS011;39735;51.432;5.482;2023-12-22T07:19:36;75.57;;;9.90;;
53833;SDS011;39735;51.432;5.482;2023-12-22T07:22:02;74.45;;;12.70;;
53833;SDS011;39735;51.432;5.482;2023-12-22T07:24:28;73.57;;;11.32;;
53833;SDS011;39735;51.432;5.482;2023-12-22T07:26:54;89.17;;;9.73;;
53833;SDS011;39735;51.432;5.482;2023-12-22T07:29:19;60.20;;;14.35;;
53833;SDS011;39735;51.432;5.482;2023-12-22T07:31:44;94.20;;;10.55;;
53833;SDS011;39735;51.432;5.482;2023-12-22T07:34:09;74.37;;;12.23;;
53833;SDS011;39735;51.432;5.482;2023-12-22T07:36:35;103.18;;;12.75;;
53833;SDS011;39735;51.432;5.482;2023-12-22T07:39:00;76.80;;;15.45;;
53833;SDS011;39735;51.432;5.482;2023-12-22T07:41:25;66.78;;;10.80;;
53833;SDS011;39735;51.432;5.482;2023-12-22T07:43:51;63.38;;;11.00;;
53833;SDS011;39735;51.432;5.482;2023-12-22T07:46:17;83.50;;;11.55;;
53833;SDS011;39735;51.432;5.482;2023-12-22T07:48:42;55.40;;;9.88;;
53833;SDS011;39735;51.432;5.482;2023-12-22T07:51:07;76.65;;;9.68;;
53833;SDS011;39735;51.432;5.482;2023-12-22T07:53:32;60.23;;;6.57;;
53833;SDS011;39735;51.432;5.482;2023-12-22T07:55:57;58.08;;;9.52;;
53833;SDS011;39735;51.432;5.482;2023-12-22T07:58:24;61.15;;;7.78;;
53833;SDS011;39735;51.432;5.482;2023-12-22T08:00:49;73.93;;;10.18;;
53833;SDS011;39735;51.432;5.482;2023-12-22T08:03:14;51.97;;;10.37;;
53833;SDS011;39735;51.432;5.482;2023-12-22T08:05:39;67.40;;;7.23;;
53833;SDS011;39735;51.432;5.482;2023-12-22T08:08:05;63.33;;;7.40;;
53833;SDS011;39735;51.432;5.482;2023-12-22T08:10:30;72.80;;;9.45;;
53833;SDS011;39735;51.432;5.482;2023-12-22T08:12:55;56.73;;;10.63;;
53833;SDS011;39735;51.432;5.482;2023-12-22T08:15:21;75.80;;;10.70;;
53833;SDS011;39735;51.432;5.482;2023-12-22T08:17:46;65.10;;;11.90;;
53833;SDS011;39735;51.432;5.482;2023-12-22T08:20:15;47.47;;;5.75;;
53833;SDS011;39735;51.432;5.482;2023-12-22T08:22:41;61.40;;;9.63;;
53833;SDS011;39735;51.432;5.482;2023-12-22T08:25:06;44.10;;;8.23;;
53833;SDS011;39735;51.432;5.482;2023-12-22T08:27:32;41.25;;;9.10;;
53833;SDS011;39735;51.432;5.482;2023-12-22T08:29:58;25.63;;;4.97;;
53833;SDS011;39735;51.432;5.482;2023-12-22T08:32:23;30.97;;;6.67;;
53833;SDS011;39735;51.432;5.482;2023-12-22T08:34:48;36.15;;;5.15;;
53833;SDS011;39735;51.432;5.482;2023-12-22T08:37:13;46.50;;;7.90;;
53833;SDS011;39735;51.432;5.482;2023-12-22T08:39:39;67.80;;;8.48;;
53833;SDS011;39735;51.432;5.482;2023-12-22T08:42:04;20.95;;;4.32;;
53833;SDS011;39735;51.432;5.482;2023-12-22T08:44:29;24.80;;;5.25;;
53833;SDS011;39735;51.432;5.482;2023-12-22T08:46:55;46.30;;;5.27;;
53833;SDS011;39735;51.432;5.482;2023-12-22T08:49:20;42.28;;;6.75;;
53833;SDS011;39735;51.432;5.482;2023-12-22T08:51:46;33.47;;;4.35;;
53833;SDS011;39735;51.432;5.482;2023-12-22T08:54:11;40.85;;;4.57;;
53833;SDS011;39735;51.432;5.482;2023-12-22T08:56:37;34.60;;;6.45;;
53833;SDS011;39735;51.432;5.482;2023-12-22T08:59:02;40.70;;;5.90;;
53833;SDS011;39735;51.432;5.482;2023-12-22T09:01:27;34.08;;;4.82;;
53833;SDS011;39735;51.432;5.482;2023-12-22T09:03:52;22.90;;;3.03;;
53833;SDS011;39735;51.432;5.482;2023-12-22T09:06:18;30.33;;;2.85;;
53833;SDS011;39735;51.432;5.482;2023-12-22T09:08:44;16.42;;;2.75;;
53833;SDS011;39735;51.432;5.482;2023-12-22T09:11:12;17.42;;;3.25;;
53833;SDS011;39735;51.432;5.482;2023-12-22T09:13:38;16.92;;;2.80;;
53833;SDS011;39735;51.432;5.482;2023-12-22T09:16:04;23.50;;;2.88;;
53833;SDS011;39735;51.432;5.482;2023-12-22T09:18:29;11.40;;;2.08;;
53833;SDS011;39735;51.432;5.482;2023-12-22T09:20:54;10.52;;;2.33;;
53833;SDS011;39735;51.432;5.482;2023-12-22T09:23:19;23.55;;;2.28;;
53833;SDS011;39735;51.432;5.482;2023-12-22T09:25:46;17.92;;;1.60;;
53833;SDS011;39735;51.432;5.482;2023-12-22T09:28:11;29.55;;;3.60;;
53833;SDS011;39735;51.432;5.482;2023-12-22T09:30:36;5.72;;;1.65;;
53833;SDS011;39735;51.432;5.482;2023-12-22T09:33:01;18.27;;;3.03;;
53833;SDS011;39735;51.432;5.482;2023-12-22T09:35:27;11.80;;;1.48;;
53833;SDS011;39735;51.432;5.482;2023-12-22T09:37:53;14.02;;;4.07;;
53833;SDS011;39735;51.432;5.482;2023-12-22T09:40:18;27.23;;;4.75;;
53833;SDS011;39735;51.432;5.482;2023-12-22T09:42:43;21.23;;;3.10;;
53833;SDS011;39735;51.432;5.482;2023-12-22T09:45:10;21.52;;;2.55;;
53833;SDS011;39735;51.432;5.482;2023-12-22T09:47:37;20.58;;;2.42;;
53833;SDS011;39735;51.432;5.482;2023-12-22T09:50:03;12.90;;;1.50;;
53833;SDS011;39735;51.432;5.482;2023-12-22T09:52:30;12.90;;;1.60;;
53833;SDS011;39735;51.432;5.482;2023-12-22T09:54:56;4.65;;;1.00;;
53833;SDS011;39735;51.432;5.482;2023-12-22T09:57:23;20.13;;;1.50;;
53833;SDS011;39735;51.432;5.482;2023-12-22T09:59:49;15.98;;;4.10;;
53833;SDS011;39735;51.432;5.482;2023-12-22T10:02:15;7.80;;;1.55;;
53833;SDS011;39735;51.432;5.482;2023-12-22T10:04:41;9.32;;;1.00;;
53833;SDS011;39735;51.432;5.482;2023-12-22T10:07:06;17.55;;;1.85;;
53833;SDS011;39735;51.432;5.482;2023-12-22T10:09:33;14.98;;;1.73;;
53833;SDS011;39735;51.432;5.482;2023-12-22T10:11:59;17.25;;;3.33;;
53833;SDS011;39735;51.432;5.482;2023-12-22T10:14:26;11.77;;;3.38;;
53833;SDS011;39735;51.432;5.482;2023-12-22T10:16:52;18.73;;;2.35;;
53833;SDS011;39735;51.432;5.482;2023-12-22T10:19:18;8.23;;;1.23;;
53833;SDS011;39735;51.432;5.482;2023-12-22T10:21:43;17.50;;;1.75;;
53833;SDS011;39735;51.432;5.482;2023-12-22T10:26:54;3.20;;;1.20;;
53833;SDS011;39735;51.432;5.482;2023-12-22T10:29:21;10.48;;;1.17;;
53833;SDS011;39735;51.432;5.482;2023-12-22T10:31:46;13.30;;;1.45;;
53833;SDS011;39735;51.432;5.482;2023-12-22T10:34:11;7.00;;;1.80;;
53833;SDS011;39735;51.432;5.482;2023-12-22T10:36:37;29.08;;;2.00;;
53833;SDS011;39735;51.432;5.482;2023-12-22T10:39:02;6.13;;;1.35;;
53833;SDS011;39735;51.432;5.482;2023-12-22T10:41:28;16.23;;;1.38;;
53833;SDS011;39735;51.432;5.482;2023-12-22T10:43:54;10.70;;;1.63;;
53833;SDS011;39735;51.432;5.482;2023-12-22T10:46:19;5.70;;;1.08;;
53833;SDS011;39735;51.432;5.482;2023-12-22T10:48:45;10.85;;;1.67;;
53833;SDS011;39735;51.432;5.482;2023-12-22T10:51:10;13.85;;;1.30;;
53833;SDS011;39735;51.432;5.482;2023-12-22T10:53:36;18.50;;;2.03;;
53833;SDS011;39735;51.432;5.482;2023-12-22T10:56:01;9.70;;;1.90;;
53833;SDS011;39735;51.432;5.482;2023-12-22T10:58:28;10.45;;;1.38;;
53833;SDS011;39735;51.432;5.482;2023-12-22T11:00:55;26.58;;;1.92;;
53833;SDS011;39735;51.432;5.482;2023-12-22T11:03:21;13.55;;;2.10;;
53833;SDS011;39735;51.432;5.482;2023-12-22T11:05:48;22.75;;;2.05;;
53833;SDS011;39735;51.432;5.482;2023-12-22T11:08:15;25.85;;;1.35;;
53833;SDS011;39735;51.432;5.482;2023-12-22T11:10:41;31.08;;;2.83;;
53833;SDS011;39735;51.432;5.482;2023-12-22T11:13:07;18.77;;;2.70;;
53833;SDS011;39735;51.432;5.482;2023-12-22T11:15:33;17.65;;;2.05;;
53833;SDS011;39735;51.432;5.482;2023-12-22T11:17:59;22.40;;;1.65;;
53833;SDS011;39735;51.432;5.482;2023-12-22T11:20:26;11.10;;;1.77;;
53833;SDS011;39735;51.432;5.482;2023-12-22T11:22:52;15.73;;;1.77;;
53833;SDS011;39735;51.432;5.482;2023-12-22T11:25:18;20.65;;;2.20;;
53833;SDS011;39735;51.432;5.482;2023-12-22T11:27:44;5.28;;;1.08;;
53833;SDS011;39735;51.432;5.482;2023-12-22T11:30:11;12.63;;;1.90;;
53833;SDS011;39735;51.432;5.482;2023-12-22T11:32:37;9.82;;;1.30;;
53833;SDS011;39735;51.432;5.482;2023-12-22T11:35:04;11.20;;;2.95;;
53833;SDS011;39735;51.432;5.482;2023-12-22T11:37:30;13.23;;;2.42;;
53833;SDS011;39735;51.432;5.482;2023-12-22T11:39:56;5.95;;;1.88;;
53833;SDS011;39735;51.432;5.482;2023-12-22T11:42:22;8.80;;;0.98;;
53833;SDS011;39735;51.432;5.482;2023-12-22T11:44:48;7.97;;;1.38;;
53833;SDS011;39735;51.432;5.482;2023-12-22T11:47:13;5.97;;;1.55;;
53833;SDS011;39735;51.432;5.482;2023-12-22T11:49:39;9.75;;;1.63;;
53833;SDS011;39735;51.432;5.482;2023-12-22T11:52:11;12.98;;;1.80;;
53833;SDS011;39735;51.432;5.482;2023-12-22T11:59:57;8.57;;;2.05;;
53833;SDS011;39735;51.432;5.482;2023-12-22T12:02:23;17.98;;;1.83;;
53833;SDS011;39735;51.432;5.482;2023-12-22T12:04:48;29.95;;;1.98;;
53833;SDS011;39735;51.432;5.482;2023-12-22T12:09:57;6.45;;;1.50;;
53833;SDS011;39735;51.432;5.482;2023-12-22T12:12:23;16.92;;;2.28;;
53833;SDS011;39735;51.432;5.482;2023-12-22T12:14:49;21.63;;;1.35;;
53833;SDS011;39735;51.432;5.482;2023-12-22T12:17:18;21.55;;;3.28;;
53833;SDS011;39735;51.432;5.482;2023-12-22T12:19:45;11.88;;;4.85;;
53833;SDS011;39735;51.432;5.482;2023-12-22T12:22:12;5.05;;;1.77;;
53833;SDS011;39735;51.432;5.482;2023-12-22T12:24:38;25.13;;;2.85;;
53833;SDS011;39735;51.432;5.482;2023-12-22T12:27:03;6.47;;;1.85;;
53833;SDS011;39735;51.432;5.482;2023-12-22T12:29:29;11.15;;;1.27;;
53833;SDS011;39735;51.432;5.482;2023-12-22T12:32:02;10.75;;;1.38;;
53833;SDS011;39735;51.432;5.482;2023-12-22T12:34:27;8.45;;;1.50;;
53833;SDS011;39735;51.432;5.482;2023-12-22T12:36:52;8.70;;;1.50;;
53833;SDS011;39735;51.432;5.482;2023-12-22T12:39:19;12.25;;;1.75;;
53833;SDS011;39735;51.432;5.482;2023-12-22T12:41:48;19.58;;;4.90;;
53833;SDS011;39735;51.432;5.482;2023-12-22T12:44:17;24.13;;;2.15;;
53833;SDS011;39735;51.432;5.482;2023-12-22T12:46:43;23.45;;;4.68;;
53833;SDS011;39735;51.432;5.482;2023-12-22T12:49:09;10.07;;;1.98;;
53833;SDS011;39735;51.432;5.482;2023-12-22T12:51:39;29.83;;;4.80;;
53833;SDS011;39735;51.432;5.482;2023-12-22T12:54:05;17.27;;;2.88;;
53833;SDS011;39735;51.432;5.482;2023-12-22T12:56:37;16.85;;;2.55;;
53833;SDS011;39735;51.432;5.482;2023-12-22T12:59:06;16.85;;;1.92;;
53833;SDS011;39735;51.432;5.482;2023-12-22T13:01:32;16.02;;;2.97;;
53833;SDS011;39735;51.432;5.482;2023-12-22T13:04:02;10.18;;;1.92;;
53833;SDS011;39735;51.432;5.482;2023-12-22T13:06:27;19.58;;;2.78;;
53833;SDS011;39735;51.432;5.482;2023-12-22T13:08:52;6.60;;;1.57;;
53833;SDS011;39735;51.432;5.482;2023-12-22T13:11:25;11.30;;;1.77;;
53833;SDS011;39735;51.432;5.482;2023-12-22T13:13:52;11.50;;;1.73;;
53833;SDS011;39735;51.432;5.482;2023-12-22T13:16:18;8.45;;;1.55;;
53833;SDS011;39735;51.432;5.482;2023-12-22T13:18:44;10.73;;;1.98;;
53833;SDS011;39735;51.432;5.482;2023-12-22T13:21:09;10.55;;;1.85;;
53833;SDS011;39735;51.432;5.482;2023-12-22T13:23:34;12.50;;;2.05;;
53833;SDS011;39735;51.432;5.482;2023-12-22T13:26:00;8.17;;;0.93;;
53833;SDS011;39735;51.432;5.482;2023-12-22T13:28:26;23.30;;;3.13;;
53833;SDS011;39735;51.432;5.482;2023-12-22T13:30:52;16.88;;;1.92;;
53833;SDS011;39735;51.432;5.482;2023-12-22T13:33:17;21.63;;;2.20;;
53833;SDS011;39735;51.432;5.482;2023-12-22T13:35:42;13.57;;;3.33;;
53833;SDS011;39735;51.432;5.482;2023-12-22T13:38:08;15.55;;;3.80;;
53833;SDS011;39735;51.432;5.482;2023-12-22T13:40:33;13.45;;;1.23;;
53833;SDS011;39735;51.432;5.482;2023-12-22T13:42:59;12.77;;;1.75;;
53833;SDS011;39735;51.432;5.482;2023-12-22T13:45:26;34.25;;;2.90;;
53833;SDS011;39735;51.432;5.482;2023-12-22T13:47:52;16.92;;;3.50;;
53833;SDS011;39735;51.432;5.482;2023-12-22T13:50:18;13.82;;;3.17;;
53833;SDS011;39735;51.432;5.482;2023-12-22T13:52:49;7.18;;;1.58;;
53833;SDS011;39735;51.432;5.482;2023-12-22T13:55:18;10.63;;;3.90;;
53833;SDS011;39735;51.432;5.482;2023-12-22T13:57:44;12.35;;;1.83;;
53833;SDS011;39735;51.432;5.482;2023-12-22T14:02:47;10.32;;;1.23;;
53833;SDS011;39735;51.432;5.482;2023-12-22T14:05:14;11.13;;;1.83;;
53833;SDS011;39735;51.432;5.482;2023-12-22T14:07:39;17.23;;;2.08;;
53833;SDS011;39735;51.432;5.482;2023-12-22T14:10:05;13.48;;;1.50;;
53833;SDS011;39735;51.432;5.482;2023-12-22T14:12:30;14.00;;;1.33;;
53833;SDS011;39735;51.432;5.482;2023-12-22T14:14:55;21.70;;;4.13;;
53833;SDS011;39735;51.432;5.482;2023-12-22T14:17:20;18.10;;;2.40;;
53833;SDS011;39735;51.432;5.482;2023-12-22T14:19:46;15.60;;;3.28;;
53833;SDS011;39735;51.432;5.482;2023-12-22T14:22:11;10.68;;;1.60;;
53833;SDS011;39735;51.432;5.482;2023-12-22T14:24:36;20.42;;;2.33;;
53833;SDS011;39735;51.432;5.482;2023-12-22T14:27:01;23.93;;;2.83;;
53833;SDS011;39735;51.432;5.482;2023-12-22T14:29:26;12.27;;;4.75;;
53833;SDS011;39735;51.432;5.482;2023-12-22T14:31:52;31.67;;;4.00;;
53833;SDS011;39735;51.432;5.482;2023-12-22T14:34:23;19.55;;;3.88;;
53833;SDS011;39735;51.432;5.482;2023-12-22T14:36:49;26.23;;;2.42;;
53833;SDS011;39735;51.432;5.482;2023-12-22T14:39:15;53.38;;;6.93;;
53833;SDS011;39735;51.432;5.482;2023-12-22T14:41:42;29.77;;;3.00;;
53833;SDS011;39735;51.432;5.482;2023-12-22T14:44:08;14.50;;;1.73;;